sensor_id;sensor_type;location;lat;lon;timestamp;P1;durP1;ratioP1;P2;durP2;ratioP2
51190;SDS011;37253;48.736;9.294;2022-12-18T00:01:44;10.75;;;9.13;;
51190;SDS011;37253;48.736;9.294;2022-12-18T00:03:45;11.13;;;9.90;;
51190;SDS011;37253;48.736;9.294;2022-12-18T00:05:46;12.80;;;10.15;;
51190;SDS011;37253;48.736;9.294;2022-12-18T00:07:47;12.57;;;9.65;;
51190;SDS011;37253;48.736;9.294;2022-12-18T00:09:47;10.70;;;9.60;;
51190;SDS011;37253;48.736;9.294;2022-12-18T00:11:48;13.23;;;9.70;;
51190;SDS011;37253;48.736;9.294;2022-12-18T00:13:49;11.55;;;9.68;;
51190;SDS011;37253;48.736;9.294;2022-12-18T00:15:49;10.07;;;8.60;;
51190;SDS011;37253;48.736;9.294;2022-12-18T00:17:50;10.27;;;8.98;;
51190;SDS011;37253;48.736;9.294;2022-12-18T00:19:50;12.50;;;9.52;;
51190;SDS011;37253;48.736;9.294;2022-12-18T00:21:50;11.52;;;9.98;;
51190;SDS011;37253;48.736;9.294;2022-12-18T00:23:51;11.05;;;9.38;;
51190;SDS011;37253;48.736;9.294;2022-12-18T00:25:51;11.48;;;9.38;;
51190;SDS011;37253;48.736;9.294;2022-12-18T00:27:52;11.93;;;9.65;;
51190;SDS011;37253;48.736;9.294;2022-12-18T00:29:52;11.30;;;9.40;;
51190;SDS011;37253;48.736;9.294;2022-12-18T00:31:52;13.15;;;9.85;;
51190;SDS011;37253;48.736;9.294;2022-12-18T00:33:53;11.77;;;9.15;;
51190;SDS011;37253;48.736;9.294;2022-12-18T00:36:00;12.20;;;9.55;;
51190;SDS011;37253;48.736;9.294;2022-12-18T00:38:04;12.15;;;10.18;;
51190;SDS011;37253;48.736;9.294;2022-12-18T00:40:06;15.05;;;10.48;;
51190;SDS011;37253;48.736;9.294;2022-12-18T00:42:07;12.27;;;9.32;;
51190;SDS011;37253;48.736;9.294;2022-12-18T00:44:28;13.10;;;10.15;;
51190;SDS011;37253;48.736;9.294;2022-12-18T00:46:29;11.07;;;9.20;;
51190;SDS011;37253;48.736;9.294;2022-12-18T00:48:29;10.55;;;9.45;;
51190;SDS011;37253;48.736;9.294;2022-12-18T00:50:30;12.98;;;10.13;;
51190;SDS011;37253;48.736;9.294;2022-12-18T00:52:30;13.05;;;9.48;;
51190;SDS011;37253;48.736;9.294;2022-12-18T00:54:30;11.85;;;9.65;;
51190;SDS011;37253;48.736;9.294;2022-12-18T00:56:31;13.38;;;10.05;;
51190;SDS011;37253;48.736;9.294;2022-12-18T00:58:31;10.32;;;9.23;;
51190;SDS011;37253;48.736;9.294;2022-12-18T01:00:31;11.15;;;9.88;;
51190;SDS011;37253;48.736;9.294;2022-12-18T01:02:32;11.63;;;9.60;;
51190;SDS011;37253;48.736;9.294;2022-12-18T01:04:32;10.68;;;9.45;;
51190;SDS011;37253;48.736;9.294;2022-12-18T01:06:33;11.07;;;9.25;;
51190;SDS011;37253;48.736;9.294;2022-12-18T01:08:33;11.77;;;9.43;;
51190;SDS011;37253;48.736;9.294;2022-12-18T01:10:34;13.02;;;9.75;;
51190;SDS011;37253;48.736;9.294;2022-12-18T01:12:34;11.93;;;10.02;;
51190;SDS011;37253;48.736;9.294;2022-12-18T01:14:35;11.35;;;9.23;;
51190;SDS011;37253;48.736;9.294;2022-12-18T01:16:37;11.05;;;9.57;;
51190;SDS011;37253;48.736;9.294;2022-12-18T01:18:38;11.85;;;9.68;;
51190;SDS011;37253;48.736;9.294;2022-12-18T01:20:38;12.82;;;10.02;;
51190;SDS011;37253;48.736;9.294;2022-12-18T01:22:38;13.75;;;10.25;;
51190;SDS011;37253;48.736;9.294;2022-12-18T01:24:39;13.02;;;10.32;;
51190;SDS011;37253;48.736;9.294;2022-12-18T01:26:39;13.45;;;10.55;;
51190;SDS011;37253;48.736;9.294;2022-12-18T01:28:40;12.80;;;10.13;;
51190;SDS011;37253;48.736;9.294;2022-12-18T01:30:41;12.38;;;9.73;;
51190;SDS011;37253;48.736;9.294;2022-12-18T01:32:41;12.73;;;10.45;;
51190;SDS011;37253;48.736;9.294;2022-12-18T01:34:41;13.02;;;10.27;;
51190;SDS011;37253;48.736;9.294;2022-12-18T01:36:41;12.95;;;10.25;;
51190;SDS011;37253;48.736;9.294;2022-12-18T01:38:42;12.02;;;10.20;;
51190;SDS011;37253;48.736;9.294;2022-12-18T01:40:43;12.40;;;10.52;;
51190;SDS011;37253;48.736;9.294;2022-12-18T01:42:43;10.90;;;9.68;;
51190;SDS011;37253;48.736;9.294;2022-12-18T01:47:02;12.32;;;10.05;;
51190;SDS011;37253;48.736;9.294;2022-12-18T01:49:02;11.63;;;9.73;;
51190;SDS011;37253;48.736;9.294;2022-12-18T01:51:03;13.77;;;10.80;;
51190;SDS011;37253;48.736;9.294;2022-12-18T01:53:15;15.52;;;11.32;;
51190;SDS011;37253;48.736;9.294;2022-12-18T01:55:18;13.82;;;10.07;;
51190;SDS011;37253;48.736;9.294;2022-12-18T01:57:19;12.57;;;10.35;;
51190;SDS011;37253;48.736;9.294;2022-12-18T01:59:20;13.35;;;10.35;;
51190;SDS011;37253;48.736;9.294;2022-12-18T02:01:21;13.98;;;10.40;;
51190;SDS011;37253;48.736;9.294;2022-12-18T02:03:22;13.23;;;10.35;;
51190;SDS011;37253;48.736;9.294;2022-12-18T02:05:34;14.02;;;10.85;;
51190;SDS011;37253;48.736;9.294;2022-12-18T02:07:43;12.15;;;9.93;;
51190;SDS011;37253;48.736;9.294;2022-12-18T02:10:20;13.45;;;10.60;;
51190;SDS011;37253;48.736;9.294;2022-12-18T02:12:47;14.65;;;10.85;;
51190;SDS011;37253;48.736;9.294;2022-12-18T02:17:20;13.50;;;10.40;;
51190;SDS011;37253;48.736;9.294;2022-12-18T02:19:27;14.40;;;11.18;;
51190;SDS011;37253;48.736;9.294;2022-12-18T02:21:51;12.38;;;10.48;;
51190;SDS011;37253;48.736;9.294;2022-12-18T02:26:07;12.77;;;9.82;;
51190;SDS011;37253;48.736;9.294;2022-12-18T02:28:11;12.23;;;10.15;;
51190;SDS011;37253;48.736;9.294;2022-12-18T02:30:13;12.93;;;9.98;;
51190;SDS011;37253;48.736;9.294;2022-12-18T02:32:15;13.20;;;10.93;;
51190;SDS011;37253;48.736;9.294;2022-12-18T02:34:20;12.18;;;10.85;;
51190;SDS011;37253;48.736;9.294;2022-12-18T02:36:22;12.02;;;10.30;;
51190;SDS011;37253;48.736;9.294;2022-12-18T02:38:24;12.88;;;10.43;;
51190;SDS011;37253;48.736;9.294;2022-12-18T02:40:26;12.65;;;10.38;;
51190;SDS011;37253;48.736;9.294;2022-12-18T02:42:27;11.73;;;10.23;;
51190;SDS011;37253;48.736;9.294;2022-12-18T02:44:28;12.02;;;10.07;;
51190;SDS011;37253;48.736;9.294;2022-12-18T02:46:31;14.00;;;10.55;;
51190;SDS011;37253;48.736;9.294;2022-12-18T02:48:34;11.75;;;9.98;;
51190;SDS011;37253;48.736;9.294;2022-12-18T02:50:35;12.35;;;9.88;;
51190;SDS011;37253;48.736;9.294;2022-12-18T02:52:43;12.45;;;10.50;;
51190;SDS011;37253;48.736;9.294;2022-12-18T02:54:55;12.13;;;10.05;;
51190;SDS011;37253;48.736;9.294;2022-12-18T02:57:02;12.00;;;9.85;;
51190;SDS011;37253;48.736;9.294;2022-12-18T02:59:13;11.52;;;9.77;;
51190;SDS011;37253;48.736;9.294;2022-12-18T03:01:19;11.90;;;9.77;;
51190;SDS011;37253;48.736;9.294;2022-12-18T03:03:32;11.68;;;10.23;;
51190;SDS011;37253;48.736;9.294;2022-12-18T03:07:57;11.85;;;9.75;;
51190;SDS011;37253;48.736;9.294;2022-12-18T03:09:59;11.55;;;9.57;;
51190;SDS011;37253;48.736;9.294;2022-12-18T03:12:02;12.63;;;10.27;;
51190;SDS011;37253;48.736;9.294;2022-12-18T03:14:24;12.07;;;10.30;;
51190;SDS011;37253;48.736;9.294;2022-12-18T03:16:26;12.27;;;10.00;;
51190;SDS011;37253;48.736;9.294;2022-12-18T03:18:35;12.45;;;9.40;;
51190;SDS011;37253;48.736;9.294;2022-12-18T03:20:37;12.63;;;9.90;;
51190;SDS011;37253;48.736;9.294;2022-12-18T03:22:39;14.45;;;10.93;;
51190;SDS011;37253;48.736;9.294;2022-12-18T03:24:41;12.20;;;10.18;;
51190;SDS011;37253;48.736;9.294;2022-12-18T03:26:43;10.90;;;9.63;;
51190;SDS011;37253;48.736;9.294;2022-12-18T03:30:55;14.25;;;10.30;;
51190;SDS011;37253;48.736;9.294;2022-12-18T03:33:02;12.23;;;9.32;;
51190;SDS011;37253;48.736;9.294;2022-12-18T03:35:07;12.52;;;9.82;;
51190;SDS011;37253;48.736;9.294;2022-12-18T03:37:09;13.10;;;10.15;;
51190;SDS011;37253;48.736;9.294;2022-12-18T03:39:09;13.55;;;10.40;;
51190;SDS011;37253;48.736;9.294;2022-12-18T03:45:46;12.52;;;9.73;;
51190;SDS011;37253;48.736;9.294;2022-12-18T03:47:58;13.77;;;10.20;;
51190;SDS011;37253;48.736;9.294;2022-12-18T03:52:18;12.63;;;9.75;;
51190;SDS011;37253;48.736;9.294;2022-12-18T03:54:23;11.30;;;9.98;;
51190;SDS011;37253;48.736;9.294;2022-12-18T03:56:26;11.32;;;9.80;;
51190;SDS011;37253;48.736;9.294;2022-12-18T03:58:31;12.23;;;9.73;;
51190;SDS011;37253;48.736;9.294;2022-12-18T04:00:32;10.57;;;9.30;;
51190;SDS011;37253;48.736;9.294;2022-12-18T04:02:34;10.95;;;9.77;;
51190;SDS011;37253;48.736;9.294;2022-12-18T04:04:38;10.43;;;9.32;;
51190;SDS011;37253;48.736;9.294;2022-12-18T04:06:38;11.63;;;9.93;;
51190;SDS011;37253;48.736;9.294;2022-12-18T04:08:40;12.90;;;9.85;;
51190;SDS011;37253;48.736;9.294;2022-12-18T04:10:41;11.32;;;9.60;;
51190;SDS011;37253;48.736;9.294;2022-12-18T04:12:41;11.90;;;9.88;;
51190;SDS011;37253;48.736;9.294;2022-12-18T04:14:41;12.48;;;9.85;;
51190;SDS011;37253;48.736;9.294;2022-12-18T04:16:42;10.57;;;8.90;;
51190;SDS011;37253;48.736;9.294;2022-12-18T04:18:42;11.70;;;10.00;;
51190;SDS011;37253;48.736;9.294;2022-12-18T04:20:42;11.82;;;9.70;;
51190;SDS011;37253;48.736;9.294;2022-12-18T04:22:42;11.98;;;9.35;;
51190;SDS011;37253;48.736;9.294;2022-12-18T04:24:43;11.88;;;9.27;;
51190;SDS011;37253;48.736;9.294;2022-12-18T04:26:43;11.07;;;9.38;;
51190;SDS011;37253;48.736;9.294;2022-12-18T04:28:43;12.50;;;10.02;;
51190;SDS011;37253;48.736;9.294;2022-12-18T04:30:44;11.38;;;9.27;;
51190;SDS011;37253;48.736;9.294;2022-12-18T04:32:44;11.02;;;9.40;;
51190;SDS011;37253;48.736;9.294;2022-12-18T04:34:44;10.55;;;9.32;;
51190;SDS011;37253;48.736;9.294;2022-12-18T04:36:45;10.90;;;9.38;;
51190;SDS011;37253;48.736;9.294;2022-12-18T04:38:45;11.52;;;9.02;;
51190;SDS011;37253;48.736;9.294;2022-12-18T04:40:45;10.38;;;8.80;;
51190;SDS011;37253;48.736;9.294;2022-12-18T04:42:46;11.68;;;9.57;;
51190;SDS011;37253;48.736;9.294;2022-12-18T04:44:46;11.15;;;9.95;;
51190;SDS011;37253;48.736;9.294;2022-12-18T04:46:46;14.68;;;10.02;;
51190;SDS011;37253;48.736;9.294;2022-12-18T04:48:47;11.07;;;8.73;;
51190;SDS011;37253;48.736;9.294;2022-12-18T04:50:47;11.55;;;10.05;;
51190;SDS011;37253;48.736;9.294;2022-12-18T04:52:48;11.55;;;9.05;;
51190;SDS011;37253;48.736;9.294;2022-12-18T04:54:48;11.48;;;9.27;;
51190;SDS011;37253;48.736;9.294;2022-12-18T04:56:48;11.65;;;9.43;;
51190;SDS011;37253;48.736;9.294;2022-12-18T04:58:49;10.20;;;9.10;;
51190;SDS011;37253;48.736;9.294;2022-12-18T05:00:49;10.27;;;9.18;;
51190;SDS011;37253;48.736;9.294;2022-12-18T05:02:49;11.95;;;9.63;;
51190;SDS011;37253;48.736;9.294;2022-12-18T05:04:49;11.52;;;9.52;;
51190;SDS011;37253;48.736;9.294;2022-12-18T05:06:50;12.40;;;9.40;;
51190;SDS011;37253;48.736;9.294;2022-12-18T05:08:50;11.60;;;9.55;;
51190;SDS011;37253;48.736;9.294;2022-12-18T05:10:58;11.88;;;9.02;;
51190;SDS011;37253;48.736;9.294;2022-12-18T05:12:59;11.55;;;9.23;;
51190;SDS011;37253;48.736;9.294;2022-12-18T05:15:00;11.05;;;8.65;;
51190;SDS011;37253;48.736;9.294;2022-12-18T05:17:00;10.90;;;9.00;;
51190;SDS011;37253;48.736;9.294;2022-12-18T05:19:00;11.57;;;9.60;;
51190;SDS011;37253;48.736;9.294;2022-12-18T05:21:01;12.32;;;9.80;;
51190;SDS011;37253;48.736;9.294;2022-12-18T05:23:01;10.20;;;8.65;;
51190;SDS011;37253;48.736;9.294;2022-12-18T05:25:01;10.13;;;8.60;;
51190;SDS011;37253;48.736;9.294;2022-12-18T05:27:02;10.48;;;9.07;;
51190;SDS011;37253;48.736;9.294;2022-12-18T05:29:02;10.25;;;8.60;;
51190;SDS011;37253;48.736;9.294;2022-12-18T05:31:03;10.23;;;8.55;;
51190;SDS011;37253;48.736;9.294;2022-12-18T05:33:04;11.68;;;9.43;;
51190;SDS011;37253;48.736;9.294;2022-12-18T05:35:05;10.23;;;8.80;;
51190;SDS011;37253;48.736;9.294;2022-12-18T05:37:07;9.98;;;8.45;;
51190;SDS011;37253;48.736;9.294;2022-12-18T05:39:07;10.60;;;8.95;;
51190;SDS011;37253;48.736;9.294;2022-12-18T05:41:07;10.65;;;8.85;;
51190;SDS011;37253;48.736;9.294;2022-12-18T05:43:08;10.40;;;9.10;;
51190;SDS011;37253;48.736;9.294;2022-12-18T05:45:09;11.15;;;9.05;;
51190;SDS011;37253;48.736;9.294;2022-12-18T05:47:09;12.00;;;9.20;;
51190;SDS011;37253;48.736;9.294;2022-12-18T05:49:10;10.13;;;8.68;;
51190;SDS011;37253;48.736;9.294;2022-12-18T05:51:11;10.02;;;8.48;;
51190;SDS011;37253;48.736;9.294;2022-12-18T05:53:16;10.05;;;8.50;;
51190;SDS011;37253;48.736;9.294;2022-12-18T05:55:19;10.93;;;8.70;;
51190;SDS011;37253;48.736;9.294;2022-12-18T05:57:19;9.90;;;8.27;;
51190;SDS011;37253;48.736;9.294;2022-12-18T05:59:19;10.80;;;9.00;;
51190;SDS011;37253;48.736;9.294;2022-12-18T06:01:24;12.05;;;8.70;;
51190;SDS011;37253;48.736;9.294;2022-12-18T06:03:26;10.05;;;8.25;;
51190;SDS011;37253;48.736;9.294;2022-12-18T06:05:26;10.70;;;8.77;;
51190;SDS011;37253;48.736;9.294;2022-12-18T06:07:26;10.00;;;8.50;;
51190;SDS011;37253;48.736;9.294;2022-12-18T06:09:27;9.95;;;8.55;;
51190;SDS011;37253;48.736;9.294;2022-12-18T06:11:29;10.38;;;8.77;;
51190;SDS011;37253;48.736;9.294;2022-12-18T06:13:29;9.45;;;8.43;;
51190;SDS011;37253;48.736;9.294;2022-12-18T06:15:29;12.13;;;9.02;;
51190;SDS011;37253;48.736;9.294;2022-12-18T06:17:30;10.00;;;8.57;;
51190;SDS011;37253;48.736;9.294;2022-12-18T06:19:31;9.80;;;8.32;;
51190;SDS011;37253;48.736;9.294;2022-12-18T06:21:32;8.82;;;7.85;;
51190;SDS011;37253;48.736;9.294;2022-12-18T06:23:32;10.65;;;8.35;;
51190;SDS011;37253;48.736;9.294;2022-12-18T06:25:33;9.35;;;7.97;;
51190;SDS011;37253;48.736;9.294;2022-12-18T06:27:33;9.48;;;7.85;;
51190;SDS011;37253;48.736;9.294;2022-12-18T06:29:34;9.38;;;8.38;;
51190;SDS011;37253;48.736;9.294;2022-12-18T06:31:34;10.57;;;8.35;;
51190;SDS011;37253;48.736;9.294;2022-12-18T06:33:34;10.30;;;8.63;;
51190;SDS011;37253;48.736;9.294;2022-12-18T06:35:35;10.10;;;8.25;;
51190;SDS011;37253;48.736;9.294;2022-12-18T06:37:35;8.68;;;7.78;;
51190;SDS011;37253;48.736;9.294;2022-12-18T06:39:36;9.07;;;8.15;;
51190;SDS011;37253;48.736;9.294;2022-12-18T06:41:36;9.80;;;7.90;;
51190;SDS011;37253;48.736;9.294;2022-12-18T06:43:36;9.40;;;8.40;;
51190;SDS011;37253;48.736;9.294;2022-12-18T06:45:36;10.60;;;8.88;;
51190;SDS011;37253;48.736;9.294;2022-12-18T06:47:37;9.23;;;8.23;;
51190;SDS011;37253;48.736;9.294;2022-12-18T06:49:37;8.95;;;7.70;;
51190;SDS011;37253;48.736;9.294;2022-12-18T06:51:37;10.45;;;8.18;;
51190;SDS011;37253;48.736;9.294;2022-12-18T06:53:38;10.25;;;8.52;;
51190;SDS011;37253;48.736;9.294;2022-12-18T06:55:38;8.90;;;7.43;;
51190;SDS011;37253;48.736;9.294;2022-12-18T06:57:39;10.27;;;8.38;;
51190;SDS011;37253;48.736;9.294;2022-12-18T06:59:39;8.68;;;7.78;;
51190;SDS011;37253;48.736;9.294;2022-12-18T07:01:39;11.07;;;8.57;;
51190;SDS011;37253;48.736;9.294;2022-12-18T07:03:40;10.27;;;8.88;;
51190;SDS011;37253;48.736;9.294;2022-12-18T07:05:41;9.88;;;7.75;;
51190;SDS011;37253;48.736;9.294;2022-12-18T07:07:41;9.63;;;8.45;;
51190;SDS011;37253;48.736;9.294;2022-12-18T07:09:41;12.00;;;8.75;;
51190;SDS011;37253;48.736;9.294;2022-12-18T07:11:42;9.50;;;8.32;;
51190;SDS011;37253;48.736;9.294;2022-12-18T07:13:42;9.18;;;8.18;;
51190;SDS011;37253;48.736;9.294;2022-12-18T07:15:43;9.68;;;8.18;;
51190;SDS011;37253;48.736;9.294;2022-12-18T07:17:44;9.10;;;8.10;;
51190;SDS011;37253;48.736;9.294;2022-12-18T07:19:44;9.32;;;7.93;;
51190;SDS011;37253;48.736;9.294;2022-12-18T07:21:44;9.68;;;8.07;;
51190;SDS011;37253;48.736;9.294;2022-12-18T07:23:45;10.07;;;8.00;;
51190;SDS011;37253;48.736;9.294;2022-12-18T07:25:47;9.65;;;8.27;;
51190;SDS011;37253;48.736;9.294;2022-12-18T07:27:47;10.10;;;8.43;;
51190;SDS011;37253;48.736;9.294;2022-12-18T07:29:48;9.40;;;7.95;;
51190;SDS011;37253;48.736;9.294;2022-12-18T07:31:48;8.38;;;7.43;;
51190;SDS011;37253;48.736;9.294;2022-12-18T07:33:49;8.70;;;7.80;;
51190;SDS011;37253;48.736;9.294;2022-12-18T07:35:50;8.82;;;7.65;;
51190;SDS011;37253;48.736;9.294;2022-12-18T07:37:50;9.68;;;8.18;;
51190;SDS011;37253;48.736;9.294;2022-12-18T07:39:50;11.85;;;8.45;;
51190;SDS011;37253;48.736;9.294;2022-12-18T07:41:51;8.80;;;7.75;;
51190;SDS011;37253;48.736;9.294;2022-12-18T07:44:10;9.20;;;8.23;;
51190;SDS011;37253;48.736;9.294;2022-12-18T07:46:10;9.07;;;7.78;;
51190;SDS011;37253;48.736;9.294;2022-12-18T07:48:13;9.25;;;8.20;;
51190;SDS011;37253;48.736;9.294;2022-12-18T07:50:13;10.30;;;8.25;;
51190;SDS011;37253;48.736;9.294;2022-12-18T07:52:14;9.13;;;7.82;;
51190;SDS011;37253;48.736;9.294;2022-12-18T07:54:14;9.15;;;8.18;;
51190;SDS011;37253;48.736;9.294;2022-12-18T07:56:15;9.35;;;7.82;;
51190;SDS011;37253;48.736;9.294;2022-12-18T07:58:15;9.50;;;8.20;;
51190;SDS011;37253;48.736;9.294;2022-12-18T08:00:15;9.40;;;8.07;;
51190;SDS011;37253;48.736;9.294;2022-12-18T08:02:16;9.93;;;8.32;;
51190;SDS011;37253;48.736;9.294;2022-12-18T08:04:16;9.02;;;7.53;;
51190;SDS011;37253;48.736;9.294;2022-12-18T08:06:16;9.38;;;7.88;;
51190;SDS011;37253;48.736;9.294;2022-12-18T08:08:17;9.15;;;7.90;;
51190;SDS011;37253;48.736;9.294;2022-12-18T08:10:17;10.50;;;8.40;;
51190;SDS011;37253;48.736;9.294;2022-12-18T08:12:19;9.25;;;7.75;;
51190;SDS011;37253;48.736;9.294;2022-12-18T08:14:19;8.68;;;7.72;;
51190;SDS011;37253;48.736;9.294;2022-12-18T08:16:19;9.30;;;7.97;;
51190;SDS011;37253;48.736;9.294;2022-12-18T08:18:20;9.45;;;8.05;;
51190;SDS011;37253;48.736;9.294;2022-12-18T08:20:20;9.68;;;8.23;;
51190;SDS011;37253;48.736;9.294;2022-12-18T08:22:21;11.43;;;7.82;;
51190;SDS011;37253;48.736;9.294;2022-12-18T08:24:21;9.73;;;8.27;;
51190;SDS011;37253;48.736;9.294;2022-12-18T08:26:22;10.60;;;8.43;;
51190;SDS011;37253;48.736;9.294;2022-12-18T08:28:23;9.10;;;8.20;;
51190;SDS011;37253;48.736;9.294;2022-12-18T08:30:23;10.07;;;8.20;;
51190;SDS011;37253;48.736;9.294;2022-12-18T08:32:27;9.90;;;8.00;;
51190;SDS011;37253;48.736;9.294;2022-12-18T08:34:27;12.43;;;8.85;;
51190;SDS011;37253;48.736;9.294;2022-12-18T08:36:28;18.27;;;8.43;;
51190;SDS011;37253;48.736;9.294;2022-12-18T08:38:28;10.55;;;8.15;;
51190;SDS011;37253;48.736;9.294;2022-12-18T08:40:29;9.45;;;8.20;;
51190;SDS011;37253;48.736;9.294;2022-12-18T08:42:29;10.45;;;7.88;;
51190;SDS011;37253;48.736;9.294;2022-12-18T08:44:48;13.50;;;8.35;;
51190;SDS011;37253;48.736;9.294;2022-12-18T08:46:48;11.23;;;8.55;;
51190;SDS011;37253;48.736;9.294;2022-12-18T08:48:50;9.90;;;7.82;;
51190;SDS011;37253;48.736;9.294;2022-12-18T08:50:54;10.23;;;8.40;;
51190;SDS011;37253;48.736;9.294;2022-12-18T08:52:58;10.43;;;8.10;;
51190;SDS011;37253;48.736;9.294;2022-12-18T08:54:58;10.85;;;8.10;;
51190;SDS011;37253;48.736;9.294;2022-12-18T08:56:58;10.00;;;8.35;;
51190;SDS011;37253;48.736;9.294;2022-12-18T08:58:58;12.50;;;8.50;;
51190;SDS011;37253;48.736;9.294;2022-12-18T09:01:00;18.60;;;8.77;;
51190;SDS011;37253;48.736;9.294;2022-12-18T09:03:03;11.75;;;7.85;;
51190;SDS011;37253;48.736;9.294;2022-12-18T09:05:04;12.25;;;8.48;;
51190;SDS011;37253;48.736;9.294;2022-12-18T09:07:04;12.05;;;8.55;;
51190;SDS011;37253;48.736;9.294;2022-12-18T09:09:05;14.50;;;9.50;;
51190;SDS011;37253;48.736;9.294;2022-12-18T09:11:09;14.93;;;9.25;;
51190;SDS011;37253;48.736;9.294;2022-12-18T09:13:13;18.35;;;8.88;;
51190;SDS011;37253;48.736;9.294;2022-12-18T09:15:15;16.10;;;9.57;;
51190;SDS011;37253;48.736;9.294;2022-12-18T09:17:15;13.82;;;9.75;;
51190;SDS011;37253;48.736;9.294;2022-12-18T09:19:15;17.73;;;10.13;;
51190;SDS011;37253;48.736;9.294;2022-12-18T09:21:17;12.00;;;9.30;;
51190;SDS011;37253;48.736;9.294;2022-12-18T09:23:19;18.55;;;9.88;;
51190;SDS011;37253;48.736;9.294;2022-12-18T09:25:20;16.90;;;9.70;;
51190;SDS011;37253;48.736;9.294;2022-12-18T09:27:20;18.10;;;9.35;;
51190;SDS011;37253;48.736;9.294;2022-12-18T09:29:20;13.10;;;9.13;;
51190;SDS011;37253;48.736;9.294;2022-12-18T09:31:21;12.32;;;8.75;;
51190;SDS011;37253;48.736;9.294;2022-12-18T09:33:22;12.68;;;8.77;;
51190;SDS011;37253;48.736;9.294;2022-12-18T09:35:23;14.60;;;9.38;;
51190;SDS011;37253;48.736;9.294;2022-12-18T09:37:23;17.52;;;9.27;;
51190;SDS011;37253;48.736;9.294;2022-12-18T09:39:23;13.90;;;8.98;;
51190;SDS011;37253;48.736;9.294;2022-12-18T09:41:33;16.23;;;9.70;;
51190;SDS011;37253;48.736;9.294;2022-12-18T09:43:51;13.65;;;9.07;;
51190;SDS011;37253;48.736;9.294;2022-12-18T09:45:59;12.25;;;8.90;;
51190;SDS011;37253;48.736;9.294;2022-12-18T09:48:01;12.27;;;8.23;;
51190;SDS011;37253;48.736;9.294;2022-12-18T09:50:04;17.45;;;9.35;;
51190;SDS011;37253;48.736;9.294;2022-12-18T09:54:20;11.70;;;8.82;;
51190;SDS011;37253;48.736;9.294;2022-12-18T09:56:26;15.88;;;9.57;;
51190;SDS011;37253;48.736;9.294;2022-12-18T10:00:28;11.10;;;8.73;;
51190;SDS011;37253;48.736;9.294;2022-12-18T10:02:29;13.15;;;8.65;;
51190;SDS011;37253;48.736;9.294;2022-12-18T10:04:30;14.93;;;8.73;;
51190;SDS011;37253;48.736;9.294;2022-12-18T10:10:57;17.73;;;9.57;;
51190;SDS011;37253;48.736;9.294;2022-12-18T10:15:13;13.18;;;8.52;;
51190;SDS011;37253;48.736;9.294;2022-12-18T10:26:13;14.50;;;9.48;;
51190;SDS011;37253;48.736;9.294;2022-12-18T10:28:14;12.93;;;8.70;;
51190;SDS011;37253;48.736;9.294;2022-12-18T10:30:16;13.07;;;9.52;;
51190;SDS011;37253;48.736;9.294;2022-12-18T10:32:22;11.63;;;9.13;;
51190;SDS011;37253;48.736;9.294;2022-12-18T10:34:24;12.18;;;9.15;;
51190;SDS011;37253;48.736;9.294;2022-12-18T10:36:25;17.85;;;10.32;;
51190;SDS011;37253;48.736;9.294;2022-12-18T10:38:26;12.18;;;8.88;;
51190;SDS011;37253;48.736;9.294;2022-12-18T10:40:31;16.27;;;8.80;;
51190;SDS011;37253;48.736;9.294;2022-12-18T10:42:32;16.13;;;9.77;;
51190;SDS011;37253;48.736;9.294;2022-12-18T10:44:32;15.13;;;9.90;;
51190;SDS011;37253;48.736;9.294;2022-12-18T10:46:32;12.82;;;9.90;;
51190;SDS011;37253;48.736;9.294;2022-12-18T10:48:39;13.23;;;9.48;;
51190;SDS011;37253;48.736;9.294;2022-12-18T10:50:41;13.57;;;9.68;;
51190;SDS011;37253;48.736;9.294;2022-12-18T10:52:53;15.68;;;9.90;;
51190;SDS011;37253;48.736;9.294;2022-12-18T10:55:03;13.60;;;9.38;;
51190;SDS011;37253;48.736;9.294;2022-12-18T10:59:15;12.80;;;10.10;;
51190;SDS011;37253;48.736;9.294;2022-12-18T11:01:17;14.65;;;9.80;;
51190;SDS011;37253;48.736;9.294;2022-12-18T11:03:32;12.18;;;9.20;;
51190;SDS011;37253;48.736;9.294;2022-12-18T11:05:36;17.08;;;9.73;;
51190;SDS011;37253;48.736;9.294;2022-12-18T11:07:49;16.35;;;10.02;;
51190;SDS011;37253;48.736;9.294;2022-12-18T11:10:00;14.85;;;9.98;;
51190;SDS011;37253;48.736;9.294;2022-12-18T11:12:01;13.02;;;9.90;;
51190;SDS011;37253;48.736;9.294;2022-12-18T11:14:05;13.57;;;9.98;;
51190;SDS011;37253;48.736;9.294;2022-12-18T11:16:06;14.52;;;10.45;;
51190;SDS011;37253;48.736;9.294;2022-12-18T11:18:16;14.90;;;10.02;;
51190;SDS011;37253;48.736;9.294;2022-12-18T11:20:32;16.58;;;10.00;;
51190;SDS011;37253;48.736;9.294;2022-12-18T11:22:35;14.05;;;9.32;;
51190;SDS011;37253;48.736;9.294;2022-12-18T11:24:36;15.98;;;10.13;;
51190;SDS011;37253;48.736;9.294;2022-12-18T11:26:36;11.45;;;9.40;;
51190;SDS011;37253;48.736;9.294;2022-12-18T11:30:41;12.13;;;10.05;;
51190;SDS011;37253;48.736;9.294;2022-12-18T11:32:43;15.98;;;10.23;;
51190;SDS011;37253;48.736;9.294;2022-12-18T11:34:46;13.95;;;9.95;;
51190;SDS011;37253;48.736;9.294;2022-12-18T11:36:49;13.23;;;9.98;;
51190;SDS011;37253;48.736;9.294;2022-12-18T11:38:49;14.63;;;10.65;;
51190;SDS011;37253;48.736;9.294;2022-12-18T11:40:56;13.45;;;9.80;;
51190;SDS011;37253;48.736;9.294;2022-12-18T11:43:04;12.98;;;10.05;;
51190;SDS011;37253;48.736;9.294;2022-12-18T11:47:18;13.48;;;9.90;;
51190;SDS011;37253;48.736;9.294;2022-12-18T11:49:26;12.77;;;9.43;;
51190;SDS011;37253;48.736;9.294;2022-12-18T11:51:35;14.88;;;10.23;;
51190;SDS011;37253;48.736;9.294;2022-12-18T11:53:41;14.60;;;10.15;;
51190;SDS011;37253;48.736;9.294;2022-12-18T12:04:37;15.20;;;10.35;;
51190;SDS011;37253;48.736;9.294;2022-12-18T12:11:12;14.02;;;10.13;;
51190;SDS011;37253;48.736;9.294;2022-12-18T12:13:57;13.60;;;9.98;;
51190;SDS011;37253;48.736;9.294;2022-12-18T12:18:24;14.52;;;10.52;;
51190;SDS011;37253;48.736;9.294;2022-12-18T12:20:54;12.20;;;9.88;;
51190;SDS011;37253;48.736;9.294;2022-12-18T12:23:03;13.57;;;10.10;;
51190;SDS011;37253;48.736;9.294;2022-12-18T12:27:31;14.23;;;9.82;;
51190;SDS011;37253;48.736;9.294;2022-12-18T12:30:02;13.75;;;10.15;;
51190;SDS011;37253;48.736;9.294;2022-12-18T12:32:14;15.57;;;10.25;;
51190;SDS011;37253;48.736;9.294;2022-12-18T12:34:50;13.20;;;10.15;;
51190;SDS011;37253;48.736;9.294;2022-12-18T12:37:25;14.43;;;10.63;;
51190;SDS011;37253;48.736;9.294;2022-12-18T12:39:22;12.27;;;9.90;;
51190;SDS011;37253;48.736;9.294;2022-12-18T12:41:27;13.18;;;10.50;;
51190;SDS011;37253;48.736;9.294;2022-12-18T12:43:49;14.15;;;9.77;;
51190;SDS011;37253;48.736;9.294;2022-12-18T12:45:54;13.90;;;10.07;;
51190;SDS011;37253;48.736;9.294;2022-12-18T12:47:56;12.70;;;10.07;;
51190;SDS011;37253;48.736;9.294;2022-12-18T12:50:01;15.50;;;9.60;;
51190;SDS011;37253;48.736;9.294;2022-12-18T12:52:05;12.55;;;9.38;;
51190;SDS011;37253;48.736;9.294;2022-12-18T12:54:15;15.57;;;10.73;;
51190;SDS011;37253;48.736;9.294;2022-12-18T12:56:18;14.15;;;10.18;;
51190;SDS011;37253;48.736;9.294;2022-12-18T12:58:33;12.73;;;9.38;;
51190;SDS011;37253;48.736;9.294;2022-12-18T13:00:43;14.32;;;10.15;;
51190;SDS011;37253;48.736;9.294;2022-12-18T13:03:06;13.15;;;9.73;;
51190;SDS011;37253;48.736;9.294;2022-12-18T13:05:20;12.75;;;9.85;;
51190;SDS011;37253;48.736;9.294;2022-12-18T13:07:39;11.45;;;9.65;;
51190;SDS011;37253;48.736;9.294;2022-12-18T13:12:12;12.75;;;9.52;;
51190;SDS011;37253;48.736;9.294;2022-12-18T13:14:35;14.57;;;10.32;;
51190;SDS011;37253;48.736;9.294;2022-12-18T13:16:37;10.90;;;9.73;;